createdAt,value
2022-12-24T00:01:33.124Z,24.80
2022-12-24T00:03:59.480Z,31.60
2022-12-24T00:06:25.837Z,26.60
2022-12-24T00:08:52.221Z,28.90
2022-12-24T00:11:19.036Z,18.93
2022-12-24T00:13:45.241Z,30.83
2022-12-24T00:16:12.073Z,25.70
2022-12-24T00:18:43.543Z,22.27
2022-12-24T00:21:12.267Z,34.17
2022-12-24T00:23:39.891Z,29.43
2022-12-24T00:26:06.130Z,25.80
2022-12-24T00:28:32.308Z,34.13
2022-12-24T00:30:58.619Z,32.20
2022-12-24T00:33:25.570Z,25.73
2022-12-24T00:35:52.413Z,22.53
2022-12-24T00:38:18.834Z,30.23
2022-12-24T00:40:45.215Z,26.37
2022-12-24T00:43:11.449Z,26.57
2022-12-24T00:45:37.679Z,32.07
2022-12-24T00:48:04.077Z,27.90
2022-12-24T00:50:30.902Z,26.57
2022-12-24T00:52:57.093Z,32.43
2022-12-24T00:55:23.268Z,34.63
2022-12-24T00:57:49.523Z,31.07
2022-12-24T01:00:17.205Z,41.27
2022-12-24T01:02:43.579Z,32.80
2022-12-24T01:05:10.168Z,29.73
2022-12-24T01:07:38.458Z,28.70
2022-12-24T01:10:06.671Z,24.60
2022-12-24T01:12:33.150Z,27.43
2022-12-24T01:14:59.424Z,29.70
2022-12-24T01:17:26.905Z,25.97
2022-12-24T01:19:54.490Z,32.83
2022-12-24T01:22:20.706Z,31.60
2022-12-24T01:24:47.821Z,30.63
2022-12-24T01:27:14.295Z,27.87
2022-12-24T01:29:41.348Z,29.63
2022-12-24T01:32:07.622Z,24.67
2022-12-24T01:34:33.873Z,29.80
2022-12-24T01:37:00.093Z,25.97
2022-12-24T01:39:30.323Z,29.27
2022-12-24T01:42:15.611Z,34.03
2022-12-24T01:44:42.915Z,28.20
2022-12-24T01:47:12.699Z,27.47
2022-12-24T01:49:42.474Z,29.03
2022-12-24T01:52:11.235Z,35.23
2022-12-24T01:54:41.399Z,29.50
2022-12-24T01:57:10.765Z,25.80
2022-12-24T01:59:37.441Z,29.53
2022-12-24T02:02:04.065Z,31.80
2022-12-24T02:04:34.008Z,30.07
2022-12-24T02:07:00.377Z,34.27
2022-12-24T02:09:26.754Z,28.33
2022-12-24T02:11:53.048Z,29.97
2022-12-24T02:14:20.034Z,30.83
2022-12-24T02:16:51.015Z,31.37
2022-12-24T02:19:33.982Z,28.70
2022-12-24T02:22:02.135Z,32.13
2022-12-24T02:25:16.142Z,20.73
2022-12-24T02:27:51.428Z,20.40
2022-12-24T02:30:19.836Z,26.77
2022-12-24T02:33:01.419Z,27.97
2022-12-24T02:35:35.969Z,32.23
2022-12-24T02:38:05.850Z,27.60
2022-12-24T02:40:37.801Z,31.83
2022-12-24T02:43:08.098Z,27.80
2022-12-24T02:45:35.784Z,29.53
2022-12-24T02:48:06.089Z,23.53
2022-12-24T02:50:32.350Z,30.30
2022-12-24T02:52:58.688Z,31.77
2022-12-24T02:55:33.070Z,30.37
2022-12-24T02:58:09.694Z,29.70
2022-12-24T03:00:44.752Z,36.00
2022-12-24T03:03:27.695Z,31.23
2022-12-24T03:06:00.835Z,32.93
2022-12-24T03:08:33.053Z,26.63
2022-12-24T03:11:02.738Z,25.60
2022-12-24T03:13:29.658Z,29.00
2022-12-24T03:15:56.780Z,29.50
2022-12-24T03:18:24.794Z,26.47
2022-12-24T03:20:55.795Z,35.07
2022-12-24T03:23:22.031Z,30.83
2022-12-24T03:25:48.681Z,29.53
2022-12-24T03:28:16.531Z,25.07
2022-12-24T03:30:43.842Z,26.57
2022-12-24T03:33:10.714Z,30.57
2022-12-24T03:35:37.005Z,21.73
2022-12-24T03:38:03.636Z,23.93
2022-12-24T03:40:30.061Z,30.23
2022-12-24T03:42:56.307Z,23.80
2022-12-24T03:45:22.840Z,28.10
2022-12-24T03:47:49.268Z,18.43
2022-12-24T03:50:16.305Z,25.97
2022-12-24T03:52:43.293Z,15.10
2022-12-24T03:55:09.452Z,20.87
2022-12-24T03:57:35.757Z,20.83
2022-12-24T04:00:03.019Z,15.97
2022-12-24T04:02:29.253Z,20.67
2022-12-24T04:04:55.549Z,20.37
2022-12-24T04:07:22.524Z,14.53
2022-12-24T04:09:48.870Z,18.83
2022-12-24T04:12:14.976Z,20.17
2022-12-24T04:14:41.170Z,14.70
2022-12-24T04:17:07.516Z,15.13
2022-12-24T04:19:33.684Z,16.83
2022-12-24T04:21:59.939Z,17.63
2022-12-24T04:24:26.870Z,15.63
2022-12-24T04:26:53.119Z,21.53
2022-12-24T04:29:19.612Z,17.13
2022-12-24T04:31:45.878Z,16.90
2022-12-24T04:34:12.183Z,15.37
2022-12-24T04:36:38.389Z,12.20
2022-12-24T04:39:04.625Z,19.23
2022-12-24T04:41:31.818Z,14.07
2022-12-24T04:43:58.539Z,18.07
2022-12-24T04:46:26.455Z,12.37
2022-12-24T04:48:54.000Z,17.33
2022-12-24T04:51:21.017Z,18.07
2022-12-24T04:53:47.334Z,17.10
2022-12-24T04:56:15.066Z,14.93
2022-12-24T04:58:42.437Z,19.17
2022-12-24T05:01:13.173Z,12.03
2022-12-24T05:03:39.709Z,20.37
2022-12-24T05:06:08.189Z,14.63
2022-12-24T05:08:34.519Z,17.13
2022-12-24T05:11:01.609Z,14.53
2022-12-24T05:13:36.552Z,20.37
2022-12-24T05:16:07.820Z,15.53
2022-12-24T05:18:34.226Z,14.83
2022-12-24T05:21:00.550Z,16.70
2022-12-24T05:23:45.068Z,16.03
2022-12-24T05:26:24.263Z,14.93
2022-12-24T05:28:51.591Z,15.90
2022-12-24T05:31:18.950Z,17.10
2022-12-24T05:33:45.243Z,15.27
2022-12-24T05:36:11.763Z,20.10
2022-12-24T05:38:38.222Z,23.00
2022-12-24T05:41:04.955Z,17.83
2022-12-24T05:43:31.205Z,20.83
2022-12-24T05:45:58.703Z,25.30
2022-12-24T05:48:25.729Z,14.37
2022-12-24T05:50:52.111Z,17.10
2022-12-24T05:53:18.505Z,15.10
2022-12-24T05:55:44.822Z,18.77
2022-12-24T05:58:11.027Z,13.30
2022-12-24T06:00:37.440Z,16.80
2022-12-24T06:03:03.851Z,19.83
2022-12-24T06:05:30.857Z,14.60
2022-12-24T06:07:57.070Z,20.90
2022-12-24T06:10:23.694Z,23.13
2022-12-24T06:12:49.950Z,20.50
2022-12-24T06:15:23.539Z,18.00
2022-12-24T06:17:50.529Z,20.03
2022-12-24T06:20:16.910Z,20.17
2022-12-24T06:22:46.595Z,24.03
2022-12-24T06:25:13.897Z,14.47
2022-12-24T06:27:40.185Z,21.30
2022-12-24T06:30:07.784Z,20.17
2022-12-24T06:32:34.082Z,13.37
2022-12-24T06:35:00.352Z,16.70
2022-12-24T06:37:26.642Z,22.10
2022-12-24T06:39:53.623Z,22.47
2022-12-24T06:42:19.760Z,29.23
2022-12-24T06:44:46.090Z,19.10
2022-12-24T06:47:12.407Z,29.83
2022-12-24T06:49:38.665Z,25.03
2022-12-24T06:52:04.888Z,30.53
2022-12-24T06:54:31.224Z,28.47
2022-12-24T06:56:58.179Z,26.67
2022-12-24T06:59:24.468Z,26.63
2022-12-24T07:01:50.821Z,25.50
2022-12-24T07:04:20.517Z,33.07
2022-12-24T07:06:47.108Z,32.90
2022-12-24T07:09:13.557Z,24.03
2022-12-24T07:11:40.153Z,30.97
2022-12-24T07:14:07.245Z,24.00
2022-12-24T07:16:33.826Z,28.60
2022-12-24T07:19:00.346Z,24.90
2022-12-24T07:21:26.687Z,29.70
2022-12-24T07:23:52.877Z,31.70
2022-12-24T07:26:19.139Z,24.23
2022-12-24T07:28:45.407Z,25.87
2022-12-24T07:31:12.516Z,35.67
2022-12-24T07:33:38.846Z,32.83
2022-12-24T07:36:07.581Z,29.43
2022-12-24T07:38:40.137Z,42.60
2022-12-24T07:41:08.895Z,25.77
2022-12-24T07:43:35.037Z,18.53
2022-12-24T07:46:01.736Z,28.97
2022-12-24T07:48:29.404Z,25.20
2022-12-24T07:50:56.566Z,26.57
2022-12-24T07:53:23.048Z,31.40
2022-12-24T07:55:49.340Z,30.90
2022-12-24T07:58:15.676Z,40.57
2022-12-24T08:00:42.069Z,26.80
2022-12-24T08:03:10.712Z,33.43
2022-12-24T08:05:37.767Z,36.07
2022-12-24T08:08:04.098Z,26.53
2022-12-24T08:10:30.385Z,26.87
2022-12-24T08:12:56.565Z,31.77
2022-12-24T08:15:22.781Z,22.00
2022-12-24T08:17:48.993Z,41.07
2022-12-24T08:20:16.517Z,31.50
2022-12-24T08:22:43.442Z,31.93
2022-12-24T08:25:10.082Z,29.20
2022-12-24T08:27:36.344Z,37.43
2022-12-24T08:30:03.032Z,31.73
2022-12-24T08:32:31.430Z,45.47
2022-12-24T08:34:57.717Z,26.53
2022-12-24T08:37:23.957Z,34.67
2022-12-24T08:39:51.067Z,32.03
2022-12-24T08:42:17.538Z,29.30
2022-12-24T08:44:43.861Z,28.47
2022-12-24T08:47:10.133Z,30.93
2022-12-24T08:49:36.278Z,33.83
2022-12-24T08:52:02.500Z,32.67
2022-12-24T08:54:28.770Z,32.80
2022-12-24T08:56:55.591Z,29.53
2022-12-24T08:59:22.010Z,25.97
2022-12-24T09:01:48.336Z,25.67
2022-12-24T09:04:14.606Z,34.13
2022-12-24T09:06:40.882Z,29.53
2022-12-24T09:09:07.900Z,31.37
2022-12-24T09:11:35.032Z,21.17
2022-12-24T09:14:02.543Z,34.00
2022-12-24T09:16:28.842Z,32.00
2022-12-24T09:18:56.351Z,27.13
2022-12-24T09:21:22.592Z,29.13
2022-12-24T09:23:48.955Z,28.90
2022-12-24T09:26:17.335Z,32.33
2022-12-24T09:28:44.095Z,35.40
2022-12-24T09:31:15.044Z,28.10
2022-12-24T09:33:42.534Z,23.63
2022-12-24T09:36:09.522Z,29.50
2022-12-24T09:38:36.301Z,35.10
2022-12-24T09:41:11.901Z,27.80
2022-12-24T09:43:38.915Z,29.07
2022-12-24T09:46:09.553Z,38.43
2022-12-24T09:48:39.186Z,30.97
2022-12-24T09:51:08.450Z,28.90
2022-12-24T09:53:40.061Z,23.50
2022-12-24T09:56:10.746Z,37.03
2022-12-24T09:58:39.195Z,26.90
2022-12-24T10:01:06.298Z,34.70
2022-12-24T10:03:32.704Z,29.13
2022-12-24T10:06:06.131Z,40.57
2022-12-24T10:08:40.830Z,28.67
2022-12-24T10:11:11.952Z,31.77
2022-12-24T10:13:52.267Z,28.77
2022-12-24T10:16:23.139Z,32.07
2022-12-24T10:18:55.266Z,32.83
2022-12-24T10:21:28.212Z,36.63
2022-12-24T10:23:59.405Z,36.13
2022-12-24T10:26:27.782Z,28.23
2022-12-24T10:28:56.584Z,40.13
2022-12-24T10:31:25.806Z,32.83
2022-12-24T10:33:57.347Z,32.83
2022-12-24T10:36:27.388Z,26.87
2022-12-24T10:38:53.895Z,32.87
2022-12-24T10:41:20.070Z,25.93
2022-12-24T10:43:47.488Z,24.40
2022-12-24T10:46:19.498Z,25.20
2022-12-24T10:48:51.194Z,35.70
2022-12-24T10:51:22.270Z,36.47
2022-12-24T10:53:52.303Z,38.23
2022-12-24T10:56:19.284Z,33.17
2022-12-24T10:58:46.504Z,35.77
2022-12-24T11:01:13.211Z,30.37
2022-12-24T11:03:39.595Z,36.57
2022-12-24T11:06:10.975Z,33.73
2022-12-24T11:08:39.831Z,31.10
2022-12-24T11:11:09.427Z,37.03
2022-12-24T11:13:39.455Z,33.90
2022-12-24T11:16:08.169Z,30.20
2022-12-24T11:18:36.167Z,34.50
2022-12-24T11:21:03.223Z,39.30
2022-12-24T11:23:29.691Z,30.77
2022-12-24T11:25:57.087Z,26.13
2022-12-24T11:28:25.646Z,38.70
2022-12-24T11:31:03.614Z,30.73
2022-12-24T11:33:30.579Z,27.73
2022-12-24T11:36:10.651Z,28.97
2022-12-24T11:38:37.301Z,32.13
2022-12-24T11:41:06.752Z,34.93
2022-12-24T11:43:45.713Z,26.17
2022-12-24T11:46:35.077Z,26.20
2022-12-24T11:49:12.826Z,26.23
2022-12-24T11:51:43.623Z,25.23
2022-12-24T11:54:15.851Z,42.03
2022-12-24T11:56:44.617Z,29.80
2022-12-24T11:59:16.985Z,28.07
2022-12-24T12:01:49.160Z,32.90
2022-12-24T12:04:18.587Z,23.97
2022-12-24T12:06:47.718Z,40.97
2022-12-24T12:09:17.747Z,25.20
2022-12-24T12:11:45.096Z,25.47
2022-12-24T12:14:18.964Z,40.80
2022-12-24T12:17:00.799Z,31.70
2022-12-24T12:19:29.632Z,32.07
2022-12-24T12:21:55.887Z,24.10
2022-12-24T12:24:31.653Z,30.03
2022-12-24T12:27:04.776Z,36.20
2022-12-24T12:29:33.474Z,25.67
2022-12-24T12:32:04.742Z,28.87
2022-12-24T12:34:36.126Z,32.23
2022-12-24T12:37:12.647Z,29.43
2022-12-24T12:39:40.851Z,31.83
2022-12-24T12:42:15.361Z,57.77
2022-12-24T12:44:54.621Z,32.70
2022-12-24T12:47:53.162Z,28.47
2022-12-24T12:50:24.706Z,28.20
2022-12-24T12:53:01.015Z,24.67
2022-12-24T12:55:36.780Z,26.47
2022-12-24T12:58:04.912Z,23.97
2022-12-24T13:00:35.040Z,24.17
2022-12-24T13:03:37.327Z,27.83
2022-12-24T13:06:39.044Z,25.27
2022-12-24T13:09:47.923Z,28.17
2022-12-24T13:12:32.778Z,26.77
2022-12-24T13:15:09.231Z,23.70
2022-12-24T13:17:50.006Z,28.37
2022-12-24T13:20:23.785Z,27.63
2022-12-24T13:22:55.800Z,17.13
2022-12-24T13:25:26.246Z,29.43
2022-12-24T13:27:52.732Z,19.83
2022-12-24T13:30:37.284Z,28.80
2022-12-24T13:33:04.941Z,21.30
2022-12-24T13:35:38.266Z,20.77
2022-12-24T13:38:41.536Z,22.93
2022-12-24T13:41:40.465Z,20.03
2022-12-24T13:44:19.240Z,25.33
2022-12-24T13:46:50.350Z,17.27
2022-12-24T13:49:19.898Z,21.00
2022-12-24T13:51:46.338Z,20.03
2022-12-24T13:54:13.784Z,15.03
2022-12-24T13:56:41.523Z,21.77
2022-12-24T13:59:22.624Z,15.67
2022-12-24T14:01:49.020Z,19.47
2022-12-24T14:04:24.111Z,18.77
2022-12-24T14:06:51.906Z,18.80
2022-12-24T14:09:19.403Z,11.97
2022-12-24T14:12:16.488Z,25.33
2022-12-24T14:14:43.287Z,15.97
2022-12-24T14:17:14.529Z,20.53
2022-12-24T14:19:42.950Z,14.50
2022-12-24T14:22:22.447Z,25.07
2022-12-24T14:24:52.976Z,16.43
2022-12-24T14:27:21.717Z,19.53
2022-12-24T14:29:50.656Z,22.63
2022-12-24T14:32:17.025Z,24.77
2022-12-24T14:34:44.023Z,21.77
2022-12-24T14:37:11.783Z,26.13
2022-12-24T14:39:41.549Z,23.23
2022-12-24T14:42:20.667Z,29.63
2022-12-24T14:44:53.012Z,27.27
2022-12-24T14:47:26.065Z,23.27
2022-12-24T14:50:10.974Z,27.30
2022-12-24T14:55:31.073Z,18.33
2022-12-24T14:58:21.018Z,22.70
2022-12-24T15:00:49.816Z,31.73
2022-12-24T15:03:18.000Z,21.37
2022-12-24T15:05:50.719Z,28.27
2022-12-24T15:08:18.582Z,29.60
2022-12-24T15:10:46.922Z,28.33
2022-12-24T15:13:22.515Z,24.70
2022-12-24T15:15:52.675Z,31.40
2022-12-24T15:18:22.670Z,27.40
2022-12-24T15:20:52.299Z,22.97
2022-12-24T15:23:19.991Z,22.83
2022-12-24T15:25:46.364Z,26.23
2022-12-24T15:28:17.514Z,23.27
2022-12-24T15:30:43.939Z,26.93
2022-12-24T15:33:10.571Z,20.43
2022-12-24T15:35:51.151Z,27.63
2022-12-24T15:38:26.142Z,30.53
2022-12-24T15:40:52.962Z,27.73
2022-12-24T15:43:19.542Z,22.13
2022-12-24T15:45:47.561Z,26.40
2022-12-24T15:48:20.313Z,24.23
2022-12-24T15:50:47.646Z,29.67
2022-12-24T15:53:20.700Z,38.90
2022-12-24T15:56:01.216Z,29.23
2022-12-24T15:58:29.174Z,32.93
2022-12-24T16:01:13.597Z,33.40
2022-12-24T16:03:41.440Z,32.60
2022-12-24T16:06:10.506Z,30.53
2022-12-24T16:08:38.356Z,25.00
2022-12-24T16:11:11.048Z,28.50
2022-12-24T16:13:39.686Z,27.17
2022-12-24T16:16:09.512Z,29.80
2022-12-24T16:18:37.542Z,26.63
2022-12-24T16:21:05.184Z,22.13
2022-12-24T16:23:37.050Z,28.90
2022-12-24T16:26:03.623Z,29.57
2022-12-24T16:28:30.822Z,39.30
2022-12-24T16:30:57.171Z,27.40
2022-12-24T16:33:23.479Z,28.70
2022-12-24T16:35:50.206Z,29.03
2022-12-24T16:38:16.460Z,34.63
2022-12-24T16:40:43.715Z,20.63
2022-12-24T16:43:33.984Z,30.10
2022-12-24T16:46:02.167Z,29.30
2022-12-24T16:48:29.020Z,31.23
2022-12-24T16:50:55.440Z,29.73
2022-12-24T16:53:22.592Z,26.93
2022-12-24T16:55:50.999Z,28.10
2022-12-24T16:58:18.907Z,27.17
2022-12-24T17:00:45.370Z,17.63
2022-12-24T17:03:12.370Z,23.10
2022-12-24T17:05:39.828Z,26.57
2022-12-24T17:08:06.883Z,25.67
2022-12-24T17:10:33.218Z,33.53
2022-12-24T17:13:00.118Z,26.90
2022-12-24T17:15:26.516Z,27.17
2022-12-24T17:17:52.808Z,32.90
2022-12-24T17:20:23.953Z,33.63
2022-12-24T17:22:50.688Z,29.70
2022-12-24T17:25:16.958Z,19.57
2022-12-24T17:27:43.252Z,25.67
2022-12-24T17:30:11.147Z,21.90
2022-12-24T17:32:38.761Z,19.13
2022-12-24T17:35:06.153Z,24.33
2022-12-24T17:37:32.461Z,19.60
2022-12-24T17:39:58.830Z,26.10
2022-12-24T17:42:25.078Z,30.20
2022-12-24T17:44:51.338Z,23.17
2022-12-24T17:47:18.282Z,28.00
2022-12-24T17:49:44.763Z,32.97
2022-12-24T17:52:11.286Z,30.83
2022-12-24T17:54:40.399Z,32.90
2022-12-24T17:57:06.549Z,37.33
2022-12-24T17:59:32.811Z,25.43
2022-12-24T18:01:59.199Z,17.73
2022-12-24T18:04:26.170Z,30.53
2022-12-24T18:06:57.776Z,32.30
2022-12-24T18:09:28.268Z,40.67
2022-12-24T18:11:54.479Z,33.17
2022-12-24T18:14:20.787Z,28.20
2022-12-24T18:16:47.908Z,28.37
2022-12-24T18:19:14.328Z,24.40
2022-12-24T18:21:41.356Z,32.20
2022-12-24T18:24:08.631Z,46.67
2022-12-24T18:26:35.020Z,42.37
2022-12-24T18:29:03.585Z,38.93
2022-12-24T18:31:31.169Z,41.07
2022-12-24T18:33:57.612Z,49.50
2022-12-24T18:36:24.247Z,36.13
2022-12-24T18:38:51.430Z,43.77
2022-12-24T18:41:19.355Z,44.27
2022-12-24T18:43:45.532Z,53.30
2022-12-24T18:46:13.137Z,51.10
2022-12-24T18:48:39.616Z,32.77
2022-12-24T18:51:07.076Z,27.40
2022-12-24T18:53:33.415Z,36.07
2022-12-24T18:56:04.042Z,44.87
2022-12-24T18:58:30.271Z,55.03
2022-12-24T19:00:56.505Z,49.87
2022-12-24T19:03:23.162Z,43.10
2022-12-24T19:05:49.341Z,46.87
2022-12-24T19:08:47.080Z,49.27
2022-12-24T19:11:03.365Z,48.27
2022-12-24T19:13:29.578Z,48.17
2022-12-24T19:15:55.959Z,48.63
2022-12-24T19:18:23.915Z,39.43
2022-12-24T19:20:50.228Z,49.47
2022-12-24T19:23:16.473Z,41.30
2022-12-24T19:25:42.871Z,45.20
2022-12-24T19:28:09.870Z,43.93
2022-12-24T19:30:37.316Z,44.50
2022-12-24T19:33:03.549Z,50.60
2022-12-24T19:35:30.465Z,49.53
2022-12-24T19:37:56.636Z,45.07
2022-12-24T19:40:22.895Z,49.10
2022-12-24T19:42:51.402Z,49.53
2022-12-24T19:45:18.500Z,52.93
2022-12-24T19:47:44.799Z,55.20
2022-12-24T19:50:11.187Z,43.83
2022-12-24T19:52:37.407Z,40.73
2022-12-24T19:55:04.332Z,49.80
2022-12-24T19:57:30.526Z,45.10
2022-12-24T19:59:56.867Z,45.77
2022-12-24T20:02:23.941Z,29.07
2022-12-24T20:04:50.668Z,45.73
2022-12-24T20:07:16.893Z,30.97
2022-12-24T20:09:43.248Z,35.20
2022-12-24T20:12:09.572Z,33.20
2022-12-24T20:14:35.813Z,36.67
2022-12-24T20:17:02.193Z,43.27
2022-12-24T20:19:29.145Z,39.00
2022-12-24T20:21:55.693Z,37.80
2022-12-24T20:24:22.179Z,34.30
2022-12-24T20:26:48.570Z,32.23
2022-12-24T20:29:15.554Z,38.20
2022-12-24T20:31:41.949Z,28.57
2022-12-24T20:34:08.797Z,34.33
2022-12-24T20:36:37.210Z,28.90
2022-12-24T20:39:04.329Z,31.87
2022-12-24T20:41:31.992Z,37.83
2022-12-24T20:43:59.447Z,45.03
2022-12-24T20:46:26.610Z,40.37
2022-12-24T20:48:52.852Z,46.83
2022-12-24T20:51:24.203Z,29.90
2022-12-24T20:53:52.493Z,44.17
2022-12-24T20:56:18.683Z,42.83
2022-12-24T20:58:45.102Z,44.93
2022-12-24T21:01:12.814Z,46.07
2022-12-24T21:03:39.337Z,33.17
2022-12-24T21:06:05.933Z,39.23
2022-12-24T21:08:32.379Z,35.07
2022-12-24T21:11:17.909Z,36.17
2022-12-24T21:13:44.046Z,38.43
2022-12-24T21:16:10.234Z,34.70
2022-12-24T21:18:39.238Z,27.50
2022-12-24T21:21:05.578Z,28.53
2022-12-24T21:23:31.787Z,37.00
2022-12-24T21:26:00.097Z,32.47
2022-12-24T21:28:26.756Z,42.30
2022-12-24T21:30:53.185Z,32.40
2022-12-24T21:33:19.835Z,33.53
2022-12-24T21:35:46.167Z,34.07
2022-12-24T21:38:12.379Z,29.53
2022-12-24T21:40:38.598Z,34.00
2022-12-24T21:43:06.644Z,41.80
2022-12-24T21:45:33.241Z,45.50
2022-12-24T21:48:19.548Z,41.73
2022-12-24T21:51:03.028Z,36.37
2022-12-24T21:53:47.489Z,37.57
2022-12-24T21:56:13.742Z,28.30
2022-12-24T21:58:40.287Z,33.63
2022-12-24T22:01:07.658Z,34.07
2022-12-24T22:03:34.105Z,27.63
2022-12-24T22:06:00.638Z,24.23
2022-12-24T22:08:44.875Z,31.80
2022-12-24T22:11:30.344Z,35.07
2022-12-24T22:13:58.262Z,24.57
2022-12-24T22:16:24.897Z,31.53
2022-12-24T22:18:51.324Z,28.33
2022-12-24T22:21:17.607Z,28.00
2022-12-24T22:23:43.843Z,31.60
2022-12-24T22:26:11.178Z,24.23
2022-12-24T22:28:37.441Z,29.00
2022-12-24T22:31:04.542Z,22.50
2022-12-24T22:33:32.550Z,23.77
2022-12-24T22:35:58.729Z,22.97
2022-12-24T22:38:25.015Z,26.97
2022-12-24T22:40:51.191Z,20.17
2022-12-24T22:43:17.413Z,32.70
2022-12-24T22:45:43.683Z,26.77
2022-12-24T22:48:10.553Z,21.60
2022-12-24T22:50:39.046Z,19.87
2022-12-24T22:53:05.253Z,20.23
2022-12-24T22:55:33.663Z,29.77
2022-12-24T22:58:01.923Z,21.93
2022-12-24T23:00:39.871Z,19.90
2022-12-24T23:03:06.428Z,22.50
2022-12-24T23:05:33.505Z,21.60
2022-12-24T23:07:59.767Z,27.77
2022-12-24T23:10:26.026Z,23.50
2022-12-24T23:13:14.578Z,21.93
2022-12-24T23:15:41.652Z,19.60
2022-12-24T23:18:08.383Z,22.17
2022-12-24T23:20:38.059Z,19.73
2022-12-24T23:23:04.223Z,21.80
2022-12-24T23:25:30.431Z,16.43
2022-12-24T23:27:56.677Z,21.00
2022-12-24T23:30:22.920Z,24.07
2022-12-24T23:32:49.098Z,18.57
2022-12-24T23:35:15.430Z,26.17
2022-12-24T23:37:42.324Z,16.77
2022-12-24T23:40:09.722Z,21.17
2022-12-24T23:42:37.865Z,14.80
2022-12-24T23:45:04.926Z,14.63
2022-12-24T23:47:31.169Z,25.70
2022-12-24T23:49:57.394Z,21.10
2022-12-24T23:52:23.618Z,22.57
2022-12-24T23:54:50.463Z,21.70
